Time;durP1;ratioP1;P1;durP2;ratioP2;P2;SDS_P1;SDS_P2;PMS_P1;PMS_P2;Temp;Humidity;BMP_temperature;BMP_pressure;BME280_temperature;BME280_humidity;BME280_pressure;Samples;Min_cycle;Max_cycle;Signal;HPM_P1;HPM_P2
2023/01/08 00:01:30;;;;;;;12.03;8.60;;;0.00;99.90;;;;;;6185765;23;20899;-74
2023/01/08 00:03:59;;;;;;;10.27;7.53;;;0.00;99.90;;;;;;6185738;23;20475;-76
2023/01/08 00:06:28;;;;;;;11.07;9.03;;;0.00;99.90;;;;;;6186291;23;20979;-76
2023/01/08 00:08:56;;;;;;;11.03;8.83;;;0.00;99.90;;;;;;6185172;23;20775;-75
2023/01/08 00:11:25;;;;;;;14.77;9.23;;;0.10;99.90;;;;;;6185689;23;20407;-75
2023/01/08 00:13:53;;;;;;;11.60;8.70;;;0.10;99.90;;;;;;6185706;23;20447;-75
2023/01/08 00:16:21;;;;;;;11.20;8.70;;;0.10;99.90;;;;;;6185403;23;20426;-76
2023/01/08 00:18:50;;;;;;;11.60;8.80;;;0.10;99.90;;;;;;6184683;23;20418;-75
2023/01/08 00:21:18;;;;;;;12.83;8.63;;;0.10;99.90;;;;;;6185084;23;20426;-74
2023/01/08 00:23:48;;;;;;;11.77;9.10;;;0.10;99.90;;;;;;6185944;23;20436;-75
2023/01/08 00:26:16;;;;;;;11.53;8.77;;;0.10;99.90;;;;;;6185595;23;20752;-76
2023/01/08 00:28:44;;;;;;;11.30;9.00;;;0.20;99.90;;;;;;6184312;23;20436;-75
2023/01/08 00:31:13;;;;;;;11.47;8.97;;;0.10;99.90;;;;;;6185442;23;20769;-76
2023/01/08 00:33:42;;;;;;;11.63;8.93;;;0.10;99.90;;;;;;6185278;23;20955;-75
2023/01/08 00:36:12;;;;;;;12.97;9.30;;;0.20;99.90;;;;;;6185441;23;20420;-75
2023/01/08 00:38:40;;;;;;;10.33;8.33;;;0.20;99.90;;;;;;6184998;23;20424;-76
2023/01/08 00:41:12;;;;;;;11.43;8.80;;;0.30;99.90;;;;;;6185148;23;20427;-75
2023/01/08 00:43:43;;;;;;;10.73;8.23;;;0.40;99.90;;;;;;6184833;23;20430;-74
2023/01/08 00:46:12;;;;;;;10.90;8.03;;;0.40;99.90;;;;;;6184704;23;20408;-76
2023/01/08 00:48:40;;;;;;;10.53;7.97;;;0.40;99.90;;;;;;6184163;23;20555;-76
2023/01/08 00:51:09;;;;;;;10.73;7.73;;;0.40;99.90;;;;;;6184689;23;20179;-74
2023/01/08 00:53:37;;;;;;;12.17;8.30;;;0.40;99.90;;;;;;6185353;23;20185;-74
2023/01/08 00:56:08;;;;;;;10.33;7.50;;;0.40;99.90;;;;;;6184755;23;20436;-76
2023/01/08 00:58:38;;;;;;;11.33;8.60;;;0.40;99.90;;;;;;6184933;23;20480;-75
2023/01/08 01:01:10;;;;;;;12.10;8.30;;;0.30;99.90;;;;;;6185525;23;20401;-76
2023/01/08 01:03:39;;;;;;;11.27;8.70;;;0.30;99.90;;;;;;6186001;23;20513;-73
2023/01/08 01:06:08;;;;;;;12.13;9.40;;;0.20;99.90;;;;;;6185906;23;20519;-75
2023/01/08 01:08:36;;;;;;;12.30;8.97;;;0.20;99.90;;;;;;6184183;23;20531;-75
2023/01/08 01:11:07;;;;;;;12.13;9.00;;;0.20;99.90;;;;;;6185439;23;20637;-74
2023/01/08 01:13:37;;;;;;;12.20;9.20;;;0.20;99.90;;;;;;6184796;23;20431;-76
2023/01/08 01:16:06;;;;;;;14.90;9.77;;;0.10;99.90;;;;;;6184566;23;20455;-75
2023/01/08 01:18:34;;;;;;;12.07;8.83;;;0.10;99.90;;;;;;6184380;23;20382;-75
2023/01/08 01:21:02;;;;;;;10.67;8.40;;;0.10;99.90;;;;;;6184383;23;20416;-74
2023/01/08 01:23:30;;;;;;;11.00;8.60;;;0.10;99.90;;;;;;6183921;23;20892;-75
2023/01/08 01:25:58;;;;;;;10.40;8.57;;;0.10;99.90;;;;;;6184761;23;20747;-76
2023/01/08 01:28:27;;;;;;;11.30;8.37;;;0.00;99.90;;;;;;6183680;23;20436;-76
2023/01/08 01:30:57;;;;;;;11.00;8.10;;;0.00;99.90;;;;;;6183773;23;20753;-76
2023/01/08 01:33:25;;;;;;;11.00;8.57;;;0.00;99.90;;;;;;6184198;23;20434;-74
2023/01/08 01:36:01;;;;;;;10.13;8.17;;;0.00;99.90;;;;;;6184899;23;20424;-77
2023/01/08 01:38:32;;;;;;;8.70;7.77;;;-0.10;99.90;;;;;;6182747;23;20896;-76
2023/01/08 01:41:01;;;;;;;9.40;7.73;;;-0.10;99.90;;;;;;6186739;23;20480;-77
2023/01/08 01:43:37;;;;;;;10.07;8.53;;;-0.10;99.90;;;;;;6193030;23;20880;-78
2023/01/08 01:46:28;;;;;;;9.67;7.93;;;-0.10;99.90;;;;;;6192941;23;20991;-75
2023/01/08 01:49:00;;;;;;;9.50;8.43;;;-0.20;99.90;;;;;;6183661;23;20436;-76
2023/01/08 01:51:31;;;;;;;9.60;7.67;;;-0.20;99.90;;;;;;6184048;23;20381;-75
2023/01/08 01:54:02;;;;;;;9.37;7.77;;;-0.20;99.90;;;;;;6183763;23;20900;-76
2023/01/08 01:56:31;;;;;;;11.03;8.47;;;-0.20;99.90;;;;;;6184370;23;20655;-76
2023/01/08 01:59:00;;;;;;;9.67;7.70;;;-0.20;99.90;;;;;;6183760;23;20409;-74
2023/01/08 02:01:31;;;;;;;9.57;7.77;;;-0.20;99.90;;;;;;6184480;23;20401;-75
2023/01/08 02:03:59;;;;;;;9.37;7.80;;;-0.10;99.90;;;;;;6184102;23;20391;-76
2023/01/08 02:06:36;;;;;;;9.97;7.67;;;-0.20;99.90;;;;;;6184123;23;20463;-75
2023/01/08 02:09:09;;;;;;;8.17;7.10;;;-0.20;99.90;;;;;;6184605;23;20861;-76
2023/01/08 02:12:15;;;;;;;10.73;7.87;;;-0.30;99.90;;;;;;6186333;23;20385;-77
2023/01/08 02:14:44;;;;;;;10.63;8.53;;;-0.30;99.90;;;;;;6184349;23;20980;-77
2023/01/08 02:17:20;;;;;;;9.30;7.83;;;-0.30;99.90;;;;;;6184265;23;20734;-76
2023/01/08 02:19:53;;;;;;;10.43;8.60;;;-0.40;99.90;;;;;;6183387;23;20916;-76
2023/01/08 02:22:32;;;;;;;11.13;9.03;;;-0.40;99.90;;;;;;6183774;23;20424;-76
2023/01/08 02:25:06;;;;;;;12.33;8.37;;;-0.50;99.90;;;;;;6184125;23;20421;-77
2023/01/08 02:27:40;;;;;;;13.07;9.20;;;-0.40;99.90;;;;;;6183840;23;20419;-76
2023/01/08 02:30:10;;;;;;;12.70;8.37;;;-0.50;99.90;;;;;;6182700;23;20448;-75
2023/01/08 02:32:40;;;;;;;13.23;9.10;;;-0.50;99.90;;;;;;6182977;23;20542;-75
2023/01/08 02:35:10;;;;;;;10.97;8.77;;;-0.50;99.90;;;;;;6184319;23;20426;-76
2023/01/08 02:37:40;;;;;;;10.70;8.50;;;-0.60;99.90;;;;;;6184051;23;20475;-74
2023/01/08 02:40:27;;;;;;;11.33;8.57;;;-0.60;99.90;;;;;;6182314;23;20448;-74
2023/01/08 02:43:03;;;;;;;10.60;8.80;;;-0.60;99.90;;;;;;6183515;23;20420;-76
2023/01/08 02:45:39;;;;;;;12.70;9.77;;;-0.60;99.90;;;;;;6183881;23;20416;-76
2023/01/08 02:48:11;;;;;;;14.20;8.87;;;-0.60;99.90;;;;;;6182995;23;20460;-77
2023/01/08 02:50:44;;;;;;;13.83;10.20;;;-0.60;99.90;;;;;;6183668;23;20907;-77
2023/01/08 02:53:17;;;;;;;12.73;9.73;;;-0.60;99.90;;;;;;6183714;23;20762;-77
2023/01/08 02:55:49;;;;;;;14.33;9.37;;;-0.50;99.90;;;;;;6183666;23;20412;-75
2023/01/08 02:58:20;;;;;;;13.93;9.97;;;-0.50;99.90;;;;;;6183354;23;20460;-76
2023/01/08 03:00:49;;;;;;;12.20;9.03;;;-0.50;99.90;;;;;;6184696;23;20388;-76
2023/01/08 03:03:22;;;;;;;12.20;8.97;;;-0.60;99.90;;;;;;6184407;23;20896;-75
2023/01/08 03:05:55;;;;;;;13.13;9.10;;;-0.60;99.90;;;;;;6184045;23;21009;-75
2023/01/08 03:08:24;;;;;;;12.20;9.27;;;-0.50;99.90;;;;;;6183086;23;20384;-75
2023/01/08 03:10:56;;;;;;;11.73;8.97;;;-0.60;99.90;;;;;;6183294;23;20475;-76
2023/01/08 03:13:31;;;;;;;14.77;8.60;;;-0.60;99.90;;;;;;6183770;23;20400;-76
2023/01/08 03:16:03;;;;;;;11.70;8.70;;;-0.60;99.90;;;;;;6186292;23;20733;-76
2023/01/08 03:18:36;;;;;;;11.30;8.03;;;-0.60;99.90;;;;;;6185907;23;20518;-77
2023/01/08 03:21:06;;;;;;;12.67;8.27;;;-0.60;99.90;;;;;;6186653;23;20759;-76
2023/01/08 03:23:37;;;;;;;10.83;8.07;;;-0.60;99.90;;;;;;6185216;23;20407;-76
2023/01/08 03:26:06;;;;;;;11.03;8.00;;;-0.70;99.90;;;;;;6185990;23;20861;-77
2023/01/08 03:28:41;;;;;;;11.47;9.10;;;-0.70;99.90;;;;;;6185254;23;20410;-75
2023/01/08 03:31:11;;;;;;;12.67;9.10;;;-0.80;99.90;;;;;;6185598;23;20454;-77
2023/01/08 03:33:40;;;;;;;13.47;8.63;;;-0.90;99.90;;;;;;6184904;23;20427;-77
2023/01/08 03:36:12;;;;;;;14.07;8.70;;;-0.80;99.90;;;;;;6185888;23;20470;-77
2023/01/08 03:38:45;;;;;;;11.50;8.03;;;-0.90;99.90;;;;;;6184546;23;20482;-76
2023/01/08 03:41:16;;;;;;;11.60;8.40;;;-0.90;99.90;;;;;;6185268;23;20419;-75
2023/01/08 03:43:48;;;;;;;10.17;7.57;;;-0.90;99.90;;;;;;6185719;23;20757;-76
2023/01/08 03:46:21;;;;;;;10.17;7.40;;;-0.90;99.90;;;;;;6186224;23;20768;-76
2023/01/08 03:48:51;;;;;;;8.70;6.63;;;-0.80;99.90;;;;;;6184230;23;20420;-75
2023/01/08 03:51:19;;;;;;;7.70;5.90;;;-0.70;99.90;;;;;;6184964;23;21057;-75
2023/01/08 03:53:47;;;;;;;7.53;6.13;;;-0.60;99.90;;;;;;6185705;23;20704;-77
2023/01/08 03:56:16;;;;;;;8.10;6.07;;;-0.60;99.90;;;;;;6185670;23;20515;-75
2023/01/08 03:58:44;;;;;;;8.93;6.20;;;-0.50;99.90;;;;;;6184352;23;20420;-76
2023/01/08 04:01:14;;;;;;;7.57;5.93;;;-0.50;99.90;;;;;;6185550;23;20427;-78
2023/01/08 04:03:42;;;;;;;7.47;5.80;;;-0.50;99.90;;;;;;6185013;23;20424;-77
2023/01/08 04:06:11;;;;;;;6.33;5.27;;;-0.50;99.90;;;;;;6184796;23;20937;-76
2023/01/08 04:08:40;;;;;;;7.20;5.30;;;-0.60;99.90;;;;;;6184322;23;20952;-75
2023/01/08 04:11:26;;;;;;;8.13;5.67;;;-0.60;99.90;;;;;;6184914;23;21042;-75
2023/01/08 04:14:11;;;;;;;7.03;5.40;;;-0.60;99.90;;;;;;6185580;23;20388;-76
2023/01/08 04:16:40;;;;;;;7.37;5.33;;;-0.50;99.90;;;;;;6186063;23;20460;-76
2023/01/08 04:19:10;;;;;;;6.87;5.20;;;-0.50;99.90;;;;;;6184636;23;20403;-75
2023/01/08 04:21:39;;;;;;;6.70;4.93;;;-0.60;99.90;;;;;;6184866;23;20408;-75
2023/01/08 04:24:07;;;;;;;6.63;4.90;;;-0.60;99.90;;;;;;6186474;23;20818;-75
2023/01/08 04:26:35;;;;;;;6.07;4.30;;;-0.60;99.90;;;;;;6186188;23;20423;-77
2023/01/08 04:29:04;;;;;;;6.43;4.40;;;-0.60;99.90;;;;;;6186027;23;20400;-76
2023/01/08 04:31:33;;;;;;;5.90;4.53;;;-0.60;99.90;;;;;;6186109;23;20992;-77
2023/01/08 04:34:02;;;;;;;6.73;4.63;;;-0.60;99.90;;;;;;6187361;23;20423;-77
2023/01/08 04:36:30;;;;;;;5.63;4.70;;;-0.60;99.90;;;;;;6187442;23;20442;-77
2023/01/08 04:38:58;;;;;;;6.57;4.60;;;-0.60;99.90;;;;;;6186653;23;20438;-75
2023/01/08 04:41:26;;;;;;;6.40;4.57;;;-0.70;99.90;;;;;;6188792;23;20399;-76
2023/01/08 04:43:59;;;;;;;5.70;4.60;;;-0.80;99.90;;;;;;6186700;23;20504;-77
2023/01/08 04:46:27;;;;;;;6.30;4.43;;;-0.80;99.90;;;;;;6184912;23;20442;-75
2023/01/08 04:48:55;;;;;;;6.10;4.53;;;-0.80;99.90;;;;;;6183284;23;20426;-75
2023/01/08 04:51:25;;;;;;;7.73;4.70;;;-0.80;99.90;;;;;;6184279;23;20448;-76
2023/01/08 04:53:53;;;;;;;5.90;4.67;;;-0.80;99.90;;;;;;6184320;23;20458;-76
2023/01/08 04:56:22;;;;;;;5.60;4.50;;;-0.80;99.90;;;;;;6184662;23;20438;-75
2023/01/08 04:58:51;;;;;;;5.80;4.40;;;-0.70;99.90;;;;;;6182926;23;20416;-73
2023/01/08 05:01:21;;;;;;;5.43;4.27;;;-0.60;99.90;;;;;;6184856;23;20405;-74
2023/01/08 05:03:53;;;;;;;5.27;4.00;;;-0.70;99.90;;;;;;6185090;23;20421;-74
2023/01/08 05:06:22;;;;;;;7.60;4.73;;;-0.50;99.90;;;;;;6184713;23;20499;-74
2023/01/08 05:08:52;;;;;;;6.20;4.47;;;-0.60;99.90;;;;;;6183609;23;20413;-75
2023/01/08 05:11:20;;;;;;;5.20;4.27;;;-0.70;99.90;;;;;;6184123;23;20999;-74
2023/01/08 05:13:48;;;;;;;4.90;3.97;;;-0.70;99.90;;;;;;6184223;23;20808;-74
2023/01/08 05:16:17;;;;;;;6.67;4.43;;;-0.70;99.90;;;;;;6184858;23;20501;-73
2023/01/08 05:18:46;;;;;;;5.23;4.20;;;-0.70;99.90;;;;;;6182768;23;20431;-75
2023/01/08 05:21:14;;;;;;;5.97;4.30;;;-0.60;99.90;;;;;;6183341;23;20397;-77
2023/01/08 05:23:46;;;;;;;6.47;4.47;;;-0.60;99.90;;;;;;6184193;23;20426;-74
2023/01/08 05:26:16;;;;;;;5.33;4.10;;;-0.60;99.90;;;;;;6184492;23;20385;-74
2023/01/08 05:28:44;;;;;;;5.53;3.67;;;-0.60;99.90;;;;;;6183838;23;20833;-75
2023/01/08 05:31:12;;;;;;;5.10;4.03;;;-0.60;99.90;;;;;;6183483;23;20462;-75
2023/01/08 05:33:41;;;;;;;8.07;4.23;;;-0.60;99.90;;;;;;6184097;23;20595;-76
2023/01/08 05:36:12;;;;;;;5.60;4.20;;;-0.60;99.90;;;;;;6184489;23;20507;-77
2023/01/08 05:38:40;;;;;;;5.37;3.93;;;-0.60;99.90;;;;;;6186178;23;20462;-73
2023/01/08 05:41:09;;;;;;;6.53;4.70;;;-0.60;99.90;;;;;;6193661;23;20480;-76
2023/01/08 05:43:39;;;;;;;6.07;4.07;;;-0.60;99.90;;;;;;6195166;23;20404;-74
2023/01/08 05:46:07;;;;;;;7.70;4.37;;;-0.70;99.90;;;;;;6186848;23;20910;-77
2023/01/08 05:48:36;;;;;;;6.50;4.63;;;-0.60;99.90;;;;;;6184029;23;20408;-75
2023/01/08 05:51:04;;;;;;;6.20;4.77;;;-0.70;99.90;;;;;;6184053;23;20935;-74
2023/01/08 05:53:33;;;;;;;5.93;4.60;;;-0.70;99.90;;;;;;6183876;23;20411;-73
2023/01/08 05:56:01;;;;;;;6.97;4.63;;;-0.60;99.90;;;;;;6184173;23;20505;-73
2023/01/08 05:58:30;;;;;;;6.90;5.00;;;-0.70;99.90;;;;;;6182911;23;20421;-74
2023/01/08 06:01:03;;;;;;;6.77;4.90;;;-0.70;99.90;;;;;;6183873;23;20773;-73
2023/01/08 06:03:32;;;;;;;7.53;5.10;;;-0.70;99.90;;;;;;6183666;23;20415;-74
2023/01/08 06:06:00;;;;;;;7.17;4.97;;;-0.70;99.90;;;;;;6184164;23;20412;-74
2023/01/08 06:08:29;;;;;;;8.17;4.97;;;-0.60;99.90;;;;;;6182972;23;20483;-74
2023/01/08 06:11:00;;;;;;;6.80;4.97;;;-0.70;99.90;;;;;;6183608;23;20469;-75
2023/01/08 06:13:30;;;;;;;7.17;5.30;;;-0.70;99.90;;;;;;6184104;23;20771;-75
2023/01/08 06:15:59;;;;;;;8.37;5.83;;;-0.70;99.90;;;;;;6183975;23;20408;-74
2023/01/08 06:18:30;;;;;;;6.43;4.90;;;-0.70;99.90;;;;;;6183109;23;20450;-75
2023/01/08 06:21:04;;;;;;;7.10;5.10;;;-0.80;99.90;;;;;;6183443;23;20494;-74
2023/01/08 06:23:32;;;;;;;7.03;4.97;;;-0.70;99.90;;;;;;6183909;23;20407;-75
2023/01/08 06:26:02;;;;;;;6.73;4.77;;;-0.80;99.90;;;;;;6183672;23;20463;-75
2023/01/08 06:28:31;;;;;;;6.90;4.97;;;-0.70;99.90;;;;;;6182818;23;20444;-73
2023/01/08 06:31:00;;;;;;;12.67;6.60;;;-0.70;99.90;;;;;;6185487;23;20531;-73
2023/01/08 06:33:31;;;;;;;10.47;6.37;;;-0.70;99.90;;;;;;6183406;23;20411;-75
2023/01/08 06:36:01;;;;;;;14.30;7.47;;;-0.70;99.90;;;;;;6184165;23;20495;-76
2023/01/08 06:38:31;;;;;;;9.67;5.87;;;-0.70;99.90;;;;;;6183500;23;20468;-74
2023/01/08 06:40:59;;;;;;;8.87;6.17;;;-0.70;99.90;;;;;;6183593;23;20615;-75
2023/01/08 06:43:27;;;;;;;9.50;6.57;;;-0.70;99.90;;;;;;6184174;23;20403;-77
2023/01/08 06:45:57;;;;;;;9.83;6.20;;;-0.70;99.90;;;;;;6183632;23;20451;-74
2023/01/08 06:48:26;;;;;;;7.73;5.47;;;-0.60;99.90;;;;;;6182309;23;20914;-74
2023/01/08 06:50:56;;;;;;;8.53;5.27;;;-0.60;99.90;;;;;;6182149;23;20452;-75
2023/01/08 06:53:24;;;;;;;7.87;5.10;;;-0.40;99.90;;;;;;6182268;23;20789;-75
2023/01/08 06:55:55;;;;;;;6.07;4.50;;;-0.50;99.90;;;;;;6183348;23;20777;-75
2023/01/08 06:58:24;;;;;;;6.03;4.30;;;-0.40;99.90;;;;;;6181988;23;20435;-74
2023/01/08 07:00:52;;;;;;;5.67;4.13;;;-0.40;99.90;;;;;;6182699;23;20511;-74
2023/01/08 07:03:20;;;;;;;6.47;4.57;;;-0.40;99.90;;;;;;6182643;23;20502;-73
2023/01/08 07:05:49;;;;;;;7.87;4.70;;;-0.30;99.90;;;;;;6183266;23;20927;-76
2023/01/08 07:08:19;;;;;;;6.70;4.30;;;-0.40;99.90;;;;;;6181770;23;20491;-73
2023/01/08 07:10:47;;;;;;;5.57;4.00;;;-0.40;99.90;;;;;;6181602;23;20426;-79
2023/01/08 07:13:16;;;;;;;5.40;3.80;;;-0.30;99.90;;;;;;6182771;23;20519;-74
2023/01/08 07:15:44;;;;;;;5.57;4.07;;;-0.30;99.90;;;;;;6182989;23;20420;-76
2023/01/08 07:18:12;;;;;;;5.50;3.93;;;-0.30;99.90;;;;;;6182994;23;20423;-74
2023/01/08 07:20:40;;;;;;;7.20;4.90;;;-0.30;99.90;;;;;;6183366;23;20417;-76
2023/01/08 07:23:11;;;;;;;6.73;4.43;;;-0.20;99.90;;;;;;6183600;23;20408;-75
2023/01/08 07:25:40;;;;;;;8.33;4.47;;;-0.20;99.90;;;;;;6184361;23;20436;-78
2023/01/08 07:28:11;;;;;;;9.97;7.27;;;-0.20;99.90;;;;;;6183155;23;20432;-74
2023/01/08 07:30:39;;;;;;;8.63;6.60;;;-0.20;99.90;;;;;;6183841;23;20258;-75
2023/01/08 07:33:07;;;;;;;8.73;6.53;;;-0.20;99.90;;;;;;6183205;23;20519;-75
2023/01/08 07:35:37;;;;;;;9.37;6.97;;;-0.10;99.90;;;;;;6183824;23;20915;-74
2023/01/08 07:38:06;;;;;;;16.73;11.10;;;0.60;99.90;;;;;;6182249;23;20415;-74
2023/01/08 07:40:34;;;;;;;16.27;10.53;;;0.70;99.90;;;;;;6182426;23;20220;-73
2023/01/08 07:43:05;;;;;;;7.90;5.63;;;0.60;99.90;;;;;;6183728;23;20177;-73
2023/01/08 07:45:33;;;;;;;8.10;5.53;;;0.50;99.90;;;;;;6183917;23;20599;-73
2023/01/08 07:48:02;;;;;;;5.47;3.77;;;0.50;99.90;;;;;;6182475;23;20421;-74
2023/01/08 07:50:30;;;;;;;7.43;3.90;;;0.60;99.90;;;;;;6189086;23;20486;-75
2023/01/08 07:52:59;;;;;;;7.00;3.97;;;0.60;99.90;;;;;;6177024;23;20197;-74
2023/01/08 07:55:28;;;;;;;14.43;7.53;;;0.70;99.90;;;;;;6181989;23;20749;-75
2023/01/08 07:57:56;;;;;;;8.47;5.17;;;0.80;99.90;;;;;;6183934;23;20251;-75
2023/01/08 08:00:26;;;;;;;5.97;4.43;;;0.80;99.90;;;;;;6183143;23;20365;-76
2023/01/08 08:02:55;;;;;;;6.73;5.10;;;0.90;99.90;;;;;;6184696;23;20185;-73
2023/01/08 08:05:23;;;;;;;5.53;3.80;;;1.00;99.90;;;;;;6185447;23;20422;-74
2023/01/08 08:07:51;;;;;;;6.77;4.27;;;1.10;99.90;;;;;;6187645;23;20256;-74
2023/01/08 08:10:19;;;;;;;4.80;3.70;;;1.10;99.90;;;;;;6187145;23;20212;-76
2023/01/08 08:12:48;;;;;;;5.67;3.90;;;1.10;99.90;;;;;;6186699;23;20279;-75
2023/01/08 08:15:16;;;;;;;7.47;3.93;;;1.10;99.90;;;;;;6186888;23;20467;-73
2023/01/08 08:17:47;;;;;;;5.23;3.83;;;1.10;99.90;;;;;;6185658;23;20588;-75
2023/01/08 08:20:16;;;;;;;6.73;4.23;;;1.10;99.90;;;;;;6185350;23;20184;-75
2023/01/08 08:22:44;;;;;;;6.80;4.30;;;1.10;99.90;;;;;;6185144;23;20243;-73
2023/01/08 08:25:14;;;;;;;5.80;3.73;;;1.20;99.90;;;;;;6185808;23;20216;-74
2023/01/08 08:27:42;;;;;;;5.53;4.17;;;1.30;99.90;;;;;;6185284;23;20617;-76
2023/01/08 08:30:12;;;;;;;5.13;4.00;;;1.30;99.90;;;;;;6185095;23;20277;-75
2023/01/08 08:32:41;;;;;;;8.13;4.97;;;1.40;99.90;;;;;;6185160;23;20211;-74
2023/01/08 08:35:11;;;;;;;6.47;4.53;;;1.40;99.90;;;;;;6188367;23;20235;-78
2023/01/08 08:37:40;;;;;;;5.63;4.30;;;1.40;99.90;;;;;;6189389;23;20203;-75
2023/01/08 08:40:09;;;;;;;6.63;4.70;;;1.40;99.90;;;;;;6187951;23;20212;-76
2023/01/08 08:42:37;;;;;;;7.97;5.23;;;1.60;99.90;;;;;;6187352;23;20188;-74
2023/01/08 08:45:31;;;;;;;7.30;5.00;;;1.70;99.90;;;;;;6186464;23;20289;-75
2023/01/08 08:47:59;;;;;;;8.70;4.73;;;1.80;99.90;;;;;;6185875;23;20701;-77
2023/01/08 08:50:29;;;;;;;8.07;5.20;;;1.90;99.90;;;;;;6185856;23;20177;-75
2023/01/08 08:53:00;;;;;;;7.97;5.30;;;2.00;99.90;;;;;;6185939;23;20233;-76
2023/01/08 08:55:28;;;;;;;6.50;4.43;;;2.10;99.90;;;;;;6185957;23;20271;-75
2023/01/08 08:58:03;;;;;;;6.13;4.33;;;2.20;99.90;;;;;;6186519;23;20184;-76
2023/01/08 09:00:31;;;;;;;6.53;4.73;;;2.30;99.90;;;;;;6186517;23;20213;-76
2023/01/08 09:02:59;;;;;;;7.50;5.67;;;2.40;99.90;;;;;;6185691;23;20257;-76
2023/01/08 09:05:30;;;;;;;13.93;11.50;;;2.50;99.90;;;;;;6186332;23;20200;-76
2023/01/08 09:07:58;;;;;;;9.80;6.83;;;2.60;99.90;;;;;;6185211;23;20181;-76
2023/01/08 09:10:26;;;;;;;9.67;7.10;;;2.70;99.90;;;;;;6185061;23;20187;-77
2023/01/08 09:12:55;;;;;;;6.90;5.63;;;2.80;99.90;;;;;;6185418;23;20197;-79
2023/01/08 09:15:23;;;;;;;9.03;5.93;;;3.00;99.90;;;;;;6187004;23;20204;-78
2023/01/08 09:17:55;;;;;;;8.33;5.50;;;3.00;99.90;;;;;;6184102;23;20177;-78
2023/01/08 09:20:24;;;;;;;6.47;4.20;;;3.20;99.90;;;;;;6185610;23;20703;-78
2023/01/08 09:22:53;;;;;;;8.50;6.60;;;3.40;99.90;;;;;;6185052;23;20252;-78
2023/01/08 09:25:45;;;;;;;10.93;9.30;;;3.30;99.90;;;;;;6185632;23;20171;-77
2023/01/08 09:28:16;;;;;;;7.77;5.87;;;3.60;99.90;;;;;;6185184;23;20184;-78
2023/01/08 09:30:44;;;;;;;6.93;4.60;;;3.80;99.90;;;;;;6184441;23;20184;-79
2023/01/08 09:33:12;;;;;;;6.37;4.80;;;3.80;99.90;;;;;;6184347;23;20197;-77
2023/01/08 09:35:43;;;;;;;8.00;5.00;;;3.90;99.90;;;;;;6187186;23;20177;-78
2023/01/08 09:38:12;;;;;;;7.10;4.30;;;4.10;99.90;;;;;;6196805;23;20180;-79
2023/01/08 09:40:46;;;;;;;6.90;4.60;;;4.20;99.90;;;;;;6194503;23;20181;-78
2023/01/08 09:43:17;;;;;;;6.90;4.67;;;4.40;99.90;;;;;;6184275;23;20173;-76
2023/01/08 09:45:51;;;;;;;7.23;4.53;;;4.40;99.90;;;;;;6184275;23;20521;-78
2023/01/08 09:48:22;;;;;;;7.00;3.90;;;4.50;99.90;;;;;;6182536;23;20212;-78
2023/01/08 09:50:50;;;;;;;5.67;4.47;;;4.50;99.90;;;;;;6183727;23;20247;-77
2023/01/08 09:53:20;;;;;;;7.13;4.80;;;4.60;99.90;;;;;;6183465;23;20288;-79
2023/01/08 09:55:55;;;;;;;6.47;4.47;;;4.50;99.90;;;;;;6177918;23;20184;-79
2023/01/08 09:58:39;;;;;;;5.90;4.30;;;4.70;99.90;;;;;;6182945;23;20181;-78
2023/01/08 10:01:11;;;;;;;7.53;5.27;;;4.70;99.90;;;;;;6184165;23;20259;-78
2023/01/08 10:03:42;;;;;;;8.97;5.93;;;4.60;99.90;;;;;;6183263;23;20172;-76
2023/01/08 10:06:15;;;;;;;8.73;6.23;;;4.50;99.90;;;;;;6183407;23;20650;-77
2023/01/08 10:08:45;;;;;;;6.93;5.13;;;4.40;99.90;;;;;;6182983;23;20196;-77
2023/01/08 10:11:15;;;;;;;7.33;4.87;;;4.40;99.90;;;;;;6183617;23;20653;-77
2023/01/08 10:13:48;;;;;;;9.07;5.07;;;4.40;99.90;;;;;;6184711;23;20267;-76
2023/01/08 10:16:25;;;;;;;6.47;4.27;;;4.40;99.90;;;;;;6184887;23;20216;-76
2023/01/08 10:18:53;;;;;;;7.17;4.60;;;4.50;99.90;;;;;;6183781;23;20161;-77
2023/01/08 10:21:28;;;;;;;6.17;4.30;;;4.70;99.90;;;;;;6184917;23;20181;-77
2023/01/08 10:23:58;;;;;;;6.73;4.30;;;4.70;99.90;;;;;;6183179;23;20203;-78
2023/01/08 10:26:29;;;;;;;5.83;3.83;;;5.00;99.90;;;;;;6183761;23;20263;-78
2023/01/08 10:29:08;;;;;;;5.17;3.73;;;5.30;99.90;;;;;;6182791;23;20169;-78
2023/01/08 10:31:45;;;;;;;5.60;4.13;;;5.60;99.90;;;;;;6184563;23;20210;-78
2023/01/08 10:34:24;;;;;;;6.10;4.27;;;5.90;99.90;;;;;;6185175;23;20185;-78
2023/01/08 10:36:53;;;;;;;5.77;4.17;;;6.70;99.90;;;;;;6184887;23;20181;-80
2023/01/08 10:39:26;;;;;;;6.20;4.10;;;7.10;99.90;;;;;;6183223;23;20181;-78
2023/01/08 10:41:58;;;;;;;5.00;4.10;;;7.40;99.90;;;;;;6183910;23;20543;-78
2023/01/08 10:44:26;;;;;;;6.30;4.37;;;7.30;99.90;;;;;;6184427;23;20681;-78
2023/01/08 10:46:58;;;;;;;4.23;3.80;;;7.60;99.90;;;;;;6184004;23;20177;-78
2023/01/08 10:49:33;;;;;;;6.03;4.30;;;7.60;99.90;;;;;;6182814;23;20177;-79
2023/01/08 10:52:01;;;;;;;5.93;4.30;;;7.60;99.90;;;;;;6183766;23;20708;-80
2023/01/08 10:54:36;;;;;;;5.70;4.00;;;7.90;99.90;;;;;;6184066;23;20211;-79
2023/01/08 10:57:23;;;;;;;4.90;3.77;;;8.30;99.90;;;;;;6183438;23;20231;-79
2023/01/08 10:59:52;;;;;;;5.33;3.80;;;8.30;99.90;;;;;;6184437;23;20668;-78
2023/01/08 11:02:33;;;;;;;5.20;3.90;;;8.20;99.90;;;;;;6183624;23;20180;-79
2023/01/08 11:05:09;;;;;;;5.60;4.13;;;8.00;99.90;;;;;;6183878;23;20164;-79
2023/01/08 11:07:39;;;;;;;5.60;3.70;;;7.80;99.90;;;;;;6182886;23;20185;-78
2023/01/08 11:10:22;;;;;;;4.23;3.60;;;7.90;99.90;;;;;;6183745;23;20208;-78
2023/01/08 11:12:55;;;;;;;5.07;3.73;;;8.30;99.90;;;;;;6184595;23;20172;-78
2023/01/08 11:15:28;;;;;;;4.53;3.20;;;8.00;99.90;;;;;;6184370;23;20272;-77
2023/01/08 11:18:16;;;;;;;4.60;3.40;;;7.70;99.90;;;;;;6183116;23;20239;-77
2023/01/08 11:20:44;;;;;;;5.00;3.33;;;7.40;99.90;;;;;;6184000;23;20166;-78
2023/01/08 11:23:17;;;;;;;5.53;3.50;;;7.10;99.90;;;;;;6183242;23;20644;-75
2023/01/08 11:25:52;;;;;;;4.07;3.20;;;8.00;99.90;;;;;;6183628;23;20507;-76
2023/01/08 11:28:27;;;;;;;5.03;3.50;;;7.90;99.90;;;;;;6182865;23;20177;-78
2023/01/08 11:31:02;;;;;;;8.50;3.40;;;7.20;99.90;;;;;;6182962;23;20275;-77
2023/01/08 11:33:35;;;;;;;6.30;3.50;;;7.00;99.90;;;;;;6184633;23;20268;-78
2023/01/08 11:36:10;;;;;;;5.03;3.43;;;6.90;99.90;;;;;;6183399;23;20575;-78
2023/01/08 11:38:41;;;;;;;5.07;3.70;;;6.60;99.90;;;;;;6183858;23;20404;-78
2023/01/08 11:41:23;;;;;;;7.10;3.80;;;6.60;99.90;;;;;;6186230;23;20502;-77
2023/01/08 11:44:06;;;;;;;5.80;4.10;;;6.50;99.90;;;;;;6185382;23;20587;-77
2023/01/08 11:46:42;;;;;;;5.43;3.60;;;6.50;99.90;;;;;;6184954;23;20673;-78
2023/01/08 11:49:29;;;;;;;4.27;3.23;;;6.60;99.90;;;;;;6182213;23;20229;-79
2023/01/08 11:52:09;;;;;;;6.73;3.80;;;6.70;99.90;;;;;;6184562;23;20176;-75
2023/01/08 11:55:04;;;;;;;6.80;4.17;;;6.70;99.90;;;;;;6186402;23;20212;-77
2023/01/08 11:57:43;;;;;;;5.33;3.90;;;6.80;99.90;;;;;;6183882;23;20208;-78
2023/01/08 12:00:28;;;;;;;5.37;3.90;;;6.80;99.90;;;;;;6185111;23;20227;-77
2023/01/08 12:02:58;;;;;;;5.30;3.90;;;6.90;99.90;;;;;;6185268;23;20184;-79
2023/01/08 12:05:36;;;;;;;4.97;3.77;;;7.20;99.90;;;;;;6185611;23;20566;-76
2023/01/08 12:08:07;;;;;;;4.90;3.53;;;7.30;99.90;;;;;;6184162;23;20187;-77
2023/01/08 12:10:50;;;;;;;4.57;3.43;;;7.60;99.90;;;;;;6185506;23;20275;-77
2023/01/08 12:13:39;;;;;;;5.90;3.87;;;7.80;99.90;;;;;;6185434;23;20537;-77
2023/01/08 12:16:28;;;;;;;7.37;3.63;;;8.00;99.90;;;;;;6188425;23;20594;-78
2023/01/08 12:19:17;;;;;;;4.90;3.57;;;8.20;99.90;;;;;;6184098;23;20181;-78
2023/01/08 12:22:00;;;;;;;8.60;3.70;;;8.50;99.90;;;;;;6187540;23;20219;-78
2023/01/08 12:24:51;;;;;;;4.37;3.30;;;8.40;99.90;;;;;;6185501;23;20522;-78
2023/01/08 12:27:32;;;;;;;4.87;3.63;;;8.70;99.90;;;;;;6186788;23;20216;-77
2023/01/08 12:30:33;;;;;;;5.27;3.63;;;8.60;99.90;;;;;;6185504;23;20188;-79
2023/01/08 12:33:07;;;;;;;4.97;3.47;;;8.60;99.90;;;;;;6185590;23;20209;-78
2023/01/08 12:35:39;;;;;;;4.40;2.97;;;8.50;99.90;;;;;;6185147;23;20220;-77
2023/01/08 12:38:13;;;;;;;4.77;3.40;;;8.50;99.90;;;;;;6185242;23;20169;-78
2023/01/08 12:40:45;;;;;;;6.17;3.50;;;8.50;99.90;;;;;;6185200;23;20203;-76
2023/01/08 12:43:17;;;;;;;5.57;3.07;;;8.50;99.90;;;;;;6185277;23;20208;-79
2023/01/08 12:45:52;;;;;;;5.20;3.40;;;8.40;99.90;;;;;;6186163;23;20203;-77
2023/01/08 12:48:24;;;;;;;4.07;3.00;;;8.40;99.90;;;;;;6184156;23;20181;-78
2023/01/08 12:51:01;;;;;;;4.80;3.00;;;8.30;99.90;;;;;;6186229;23;20165;-79
2023/01/08 12:53:49;;;;;;;4.80;2.77;;;8.20;99.90;;;;;;6185264;23;20264;-79
2023/01/08 12:56:24;;;;;;;3.80;2.70;;;8.00;99.90;;;;;;6185573;23;20169;-76
2023/01/08 12:59:11;;;;;;;7.77;4.30;;;8.00;99.90;;;;;;6183344;23;20227;-78
2023/01/08 13:01:49;;;;;;;5.73;4.27;;;7.90;99.90;;;;;;6184128;23;20188;-78
2023/01/08 13:04:19;;;;;;;6.07;3.80;;;7.90;99.90;;;;;;6184592;23;20231;-77
2023/01/08 13:06:52;;;;;;;6.30;3.50;;;7.90;99.90;;;;;;6184780;23;20235;-77
2023/01/08 13:09:27;;;;;;;5.90;3.90;;;7.90;99.90;;;;;;6186259;23;20405;-79
2023/01/08 13:11:57;;;;;;;5.40;4.00;;;7.70;99.90;;;;;;6185943;23;20196;-77
2023/01/08 13:14:26;;;;;;;5.57;3.63;;;7.70;99.90;;;;;;6186830;23;20283;-77